createdAt,value
2018-09-01T00:02:14.550Z,99.90
2018-09-01T00:07:17.834Z,99.90
2018-09-01T00:12:21.802Z,99.90
2018-09-01T00:17:32.174Z,99.90
2018-09-01T00:22:35.510Z,99.90
2018-09-01T00:27:38.839Z,99.90
2018-09-01T00:32:42.146Z,99.90
2018-09-01T00:37:50.730Z,99.90
2018-09-01T00:43:08.802Z,99.90
2018-09-01T00:48:12.061Z,99.90
2018-09-01T00:53:15.398Z,99.90
2018-09-01T00:58:18.635Z,99.90
2018-09-01T01:03:21.918Z,99.90
2018-09-01T01:08:25.593Z,99.90
2018-09-01T01:13:28.850Z,99.90
2018-09-01T01:18:32.099Z,99.90
2018-09-01T01:23:35.399Z,99.90
2018-09-01T01:28:39.378Z,99.90
2018-09-01T01:33:44.220Z,99.90
2018-09-01T01:38:47.478Z,99.90
2018-09-01T01:43:50.695Z,99.90
2018-09-01T01:48:53.926Z,99.90
2018-09-01T01:53:57.173Z,99.90
2018-09-01T01:59:00.439Z,99.90
2018-09-01T02:04:03.662Z,99.90
2018-09-01T02:09:06.957Z,99.90
2018-09-01T02:14:10.251Z,99.90
2018-09-01T02:19:13.558Z,99.90
2018-09-01T02:24:16.917Z,99.90
2018-09-01T02:29:20.150Z,99.90
2018-09-01T02:34:23.430Z,99.90
2018-09-01T02:39:26.677Z,99.90
2018-09-01T02:44:29.950Z,99.90
2018-09-01T02:49:33.166Z,99.90
2018-09-01T02:54:36.769Z,99.90
2018-09-01T02:59:40.258Z,99.90
2018-09-01T03:04:43.502Z,99.90
2018-09-01T03:09:46.717Z,99.90
2018-09-01T03:14:49.954Z,99.90
2018-09-01T03:19:53.211Z,99.90
2018-09-01T03:24:56.421Z,99.90
2018-09-01T03:30:00.294Z,99.90
2018-09-01T03:35:03.569Z,99.90
2018-09-01T03:40:07.050Z,99.90
2018-09-01T03:45:10.290Z,99.90
2018-09-01T03:50:13.534Z,99.90
2018-09-01T03:55:16.805Z,99.90
2018-09-01T04:00:20.010Z,99.90
2018-09-01T04:05:23.338Z,99.90
2018-09-01T04:10:26.557Z,99.90
2018-09-01T04:15:29.789Z,99.90
2018-09-01T04:20:32.998Z,99.90
2018-09-01T04:25:36.228Z,99.90
2018-09-01T04:30:39.613Z,99.90
2018-09-01T04:35:42.834Z,99.90
2018-09-01T04:40:46.081Z,99.90
2018-09-01T04:45:49.293Z,99.90
2018-09-01T04:50:52.521Z,99.90
2018-09-01T04:55:55.736Z,99.90
2018-09-01T05:00:59.019Z,99.90
2018-09-01T05:06:02.204Z,99.90
2018-09-01T05:11:05.485Z,99.90
2018-09-01T05:16:08.718Z,99.90
2018-09-01T05:21:11.948Z,99.90
2018-09-01T05:26:15.255Z,99.90
2018-09-01T05:31:19.838Z,99.90
2018-09-01T05:36:25.168Z,99.90
2018-09-01T05:41:28.373Z,99.90
2018-09-01T05:46:31.719Z,99.90
2018-09-01T05:51:34.980Z,99.90
2018-09-01T05:56:38.822Z,99.90
2018-09-01T06:01:43.202Z,99.90
2018-09-01T06:06:46.862Z,99.90
2018-09-01T06:11:51.233Z,99.90
2018-09-01T06:16:55.514Z,99.90
2018-09-01T06:22:00.433Z,99.90
2018-09-01T06:27:11.997Z,99.90
2018-09-01T06:32:29.606Z,99.90
2018-09-01T06:37:32.922Z,99.90
2018-09-01T06:42:36.139Z,99.90
2018-09-01T06:47:40.009Z,99.90
2018-09-01T06:52:43.912Z,99.90
2018-09-01T06:57:48.191Z,99.90
2018-09-01T07:02:54.197Z,99.90
2018-09-01T07:07:58.010Z,99.90
2018-09-01T07:13:01.241Z,99.90
2018-09-01T07:18:04.958Z,99.90
2018-09-01T07:23:08.228Z,99.90
2018-09-01T07:28:11.441Z,99.90
2018-09-01T07:33:21.046Z,99.90
2018-09-01T07:38:24.450Z,99.90
2018-09-01T07:43:29.834Z,99.90
2018-09-01T07:48:33.063Z,99.90
2018-09-01T07:53:36.301Z,99.90
2018-09-01T07:58:39.570Z,99.90
2018-09-01T08:03:43.603Z,99.90
2018-09-01T08:08:46.950Z,99.90
2018-09-01T08:13:50.300Z,99.90
2018-09-01T08:18:54.758Z,99.90
2018-09-01T08:24:08.940Z,99.90
2018-09-01T08:29:14.395Z,99.90
2018-09-01T08:34:19.743Z,99.80
2018-09-01T08:39:23.500Z,98.80
2018-09-01T08:44:30.575Z,99.20
2018-09-01T08:49:34.729Z,98.50
2018-09-01T08:54:38.487Z,97.70
2018-09-01T08:59:41.801Z,98.30
2018-09-01T09:04:45.123Z,97.90
2018-09-01T09:09:49.687Z,97.00
2018-09-01T09:14:52.931Z,96.30
2018-09-01T09:19:56.106Z,95.80
2018-09-01T09:24:59.338Z,96.10
2018-09-01T09:30:03.009Z,95.80
2018-09-01T09:35:06.186Z,96.40
2018-09-01T09:40:09.431Z,94.10
2018-09-01T09:45:15.926Z,93.60
2018-09-01T09:50:19.167Z,92.00
2018-09-01T09:55:22.389Z,93.20
2018-09-01T10:00:30.954Z,92.60
2018-09-01T10:05:34.183Z,93.00
2018-09-01T10:10:37.338Z,90.60
2018-09-01T10:15:40.520Z,91.90
2018-09-01T10:20:43.633Z,89.00
2018-09-01T10:25:47.071Z,88.20
2018-09-01T10:30:50.269Z,87.90
2018-09-01T10:35:53.526Z,88.70
2018-09-01T10:40:58.184Z,90.00
2018-09-01T10:46:02.606Z,90.10
2018-09-01T10:51:07.680Z,92.30
2018-09-01T10:56:12.960Z,91.70
2018-09-01T11:01:16.154Z,90.90
2018-09-01T11:06:19.402Z,91.10
2018-09-01T11:11:22.694Z,90.80
2018-09-01T11:16:25.886Z,88.10
2018-09-01T11:21:29.060Z,87.10
2018-09-01T11:26:32.305Z,88.20
2018-09-01T11:31:35.504Z,83.60
2018-09-01T11:36:38.736Z,85.40
2018-09-01T11:41:47.864Z,85.00
2018-09-01T11:46:53.210Z,86.00
2018-09-01T11:52:03.375Z,87.30
2018-09-01T11:57:06.533Z,84.80
2018-09-01T12:02:09.780Z,83.90
2018-09-01T12:07:12.927Z,84.80
2018-09-01T12:12:18.200Z,85.10
2018-09-01T12:17:21.408Z,81.40
2018-09-01T12:22:26.779Z,80.90
2018-09-01T12:27:30.790Z,80.10
2018-09-01T12:32:33.990Z,79.50
2018-09-01T12:37:37.182Z,83.40
2018-09-01T12:42:40.383Z,82.40
2018-09-01T12:47:43.614Z,84.90
2018-09-01T12:52:47.318Z,82.00
2018-09-01T12:57:50.550Z,80.10
2018-09-01T13:02:53.746Z,79.80
2018-09-01T13:07:56.978Z,80.90
2018-09-01T13:13:00.156Z,81.50
2018-09-01T13:18:03.319Z,81.90
2018-09-01T13:23:06.794Z,84.20
2018-09-01T13:28:12.048Z,83.70
2018-09-01T13:33:15.173Z,81.80
2018-09-01T13:38:22.654Z,79.40
2018-09-01T13:48:54.989Z,78.10
2018-09-01T13:54:01.463Z,76.10
2018-09-01T13:59:05.195Z,74.40
2018-09-01T14:04:08.596Z,75.80
2018-09-01T14:09:11.870Z,77.30
2018-09-01T14:14:15.478Z,79.20
2018-09-01T14:19:21.886Z,80.00
2018-09-01T14:24:27.228Z,80.90
2018-09-01T14:29:36.362Z,77.20
2018-09-01T14:34:42.236Z,76.00
2018-09-01T14:39:46.989Z,74.80
2018-09-01T14:45:00.734Z,76.90
2018-09-01T14:50:04.063Z,74.30
2018-09-01T14:55:07.534Z,74.60
2018-09-01T15:00:11.291Z,75.20
2018-09-01T15:05:14.549Z,78.80
2018-09-01T15:10:18.816Z,80.60
2018-09-01T15:15:31.802Z,83.40
2018-09-01T15:20:36.057Z,81.10
2018-09-01T15:25:39.394Z,81.40
2018-09-01T15:30:53.595Z,81.30
2018-09-01T15:35:56.916Z,79.70
2018-09-01T15:41:07.098Z,79.10
2018-09-01T15:46:20.537Z,80.10
2018-09-01T15:51:23.867Z,83.00
2018-09-01T15:56:37.205Z,84.70
2018-09-01T16:01:40.378Z,85.80
2018-09-01T16:06:43.599Z,84.40
2018-09-01T16:11:46.832Z,82.60
2018-09-01T16:16:50.040Z,81.50
2018-09-01T16:21:53.311Z,79.30
2018-09-01T16:27:02.030Z,77.70
2018-09-01T16:32:05.485Z,78.60
2018-09-01T16:37:08.700Z,78.40
2018-09-01T16:42:11.980Z,80.50
2018-09-01T16:47:15.242Z,81.40
2018-09-01T16:52:19.504Z,85.00
2018-09-01T16:57:22.792Z,83.90
2018-09-01T17:02:26.458Z,84.10
2018-09-01T17:07:30.771Z,84.80
2018-09-01T17:12:33.917Z,86.00
2018-09-01T17:17:37.281Z,87.30
2018-09-01T17:22:40.482Z,87.90
2018-09-01T17:27:43.645Z,88.20
2018-09-01T17:32:46.861Z,89.60
2018-09-01T17:37:50.042Z,90.10
2018-09-01T17:42:53.251Z,90.90
2018-09-01T17:47:56.539Z,91.90
2018-09-01T17:52:59.874Z,92.20
2018-09-01T17:58:03.086Z,92.30
2018-09-01T18:03:07.854Z,93.00
2018-09-01T18:08:11.045Z,93.10
2018-09-01T18:13:14.218Z,93.50
2018-09-01T18:18:17.513Z,94.60
2018-09-01T18:23:20.686Z,95.00
2018-09-01T18:28:23.828Z,96.20
2018-09-01T18:33:27.022Z,96.10
2018-09-01T18:38:31.400Z,95.90
2018-09-01T18:43:34.555Z,96.30
2018-09-01T18:48:37.730Z,96.80
2018-09-01T18:53:40.914Z,96.30
2018-09-01T18:58:44.102Z,97.00
2018-09-01T19:03:47.262Z,97.30
2018-09-01T19:08:50.462Z,97.50
2018-09-01T19:13:53.724Z,98.10
2018-09-01T19:18:57.029Z,98.10
2018-09-01T19:24:00.179Z,98.80
2018-09-01T19:29:03.414Z,99.00
2018-09-01T19:34:06.647Z,98.90
2018-09-01T19:39:11.183Z,99.50
2018-09-01T19:44:14.379Z,99.00
2018-09-01T19:49:17.602Z,99.40
2018-09-01T19:54:20.794Z,99.90
2018-09-01T19:59:23.990Z,99.90
2018-09-01T20:04:27.221Z,99.90
2018-09-01T20:09:30.373Z,99.90
2018-09-01T20:14:33.625Z,99.90
2018-09-01T20:19:36.822Z,99.90
2018-09-01T20:24:41.026Z,99.90
2018-09-01T20:29:44.470Z,99.90
2018-09-01T20:34:48.318Z,99.90
2018-09-01T20:39:51.520Z,99.90
2018-09-01T20:44:54.702Z,99.90
2018-09-01T20:49:57.878Z,99.90
2018-09-01T20:55:01.028Z,99.90
2018-09-01T21:00:05.176Z,99.90
2018-09-01T21:05:08.338Z,99.90
2018-09-01T21:10:11.559Z,99.90
2018-09-01T21:15:15.722Z,99.90
2018-09-01T21:20:18.915Z,99.90
2018-09-01T21:25:22.068Z,99.90
2018-09-01T21:30:25.232Z,99.90
2018-09-01T21:35:28.498Z,99.90
2018-09-01T21:40:31.662Z,99.90
2018-09-01T21:45:34.861Z,99.90
2018-09-01T21:50:38.140Z,99.90
2018-09-01T21:55:41.306Z,99.90
2018-09-01T22:00:51.594Z,99.90
2018-09-01T22:05:54.760Z,99.90
2018-09-01T22:10:58.004Z,99.90
2018-09-01T22:16:01.133Z,99.90
2018-09-01T22:21:04.641Z,99.90
2018-09-01T22:26:08.282Z,99.90
2018-09-01T22:31:11.445Z,99.90
2018-09-01T22:36:14.617Z,99.90
2018-09-01T22:41:17.812Z,99.90
2018-09-01T22:46:20.974Z,99.90
2018-09-01T22:51:24.129Z,99.90
2018-09-01T22:56:27.278Z,99.90
2018-09-01T23:01:30.451Z,99.90
2018-09-01T23:06:33.860Z,99.90
2018-09-01T23:11:37.018Z,99.90
2018-09-01T23:16:40.222Z,99.90
2018-09-01T23:21:43.403Z,99.90
2018-09-01T23:26:46.550Z,99.90
2018-09-01T23:31:49.769Z,99.90
2018-09-01T23:36:52.936Z,99.90
2018-09-01T23:41:56.082Z,99.90
2018-09-01T23:46:59.258Z,99.90
2018-09-01T23:52:02.402Z,99.90
2018-09-01T23:57:05.698Z,99.90
